map of KTQH home
Great Circle Mapper logo
KTQH - Airport
Location
City:  Tahlequah, Oklahoma, United States
Name:Tahlequah Municipal Airport
ICAO:KTQH
FAA:TQH

Details
Type:Airport (Airfield)
Use:Public/Civil
Latitude:3555'49"N (35.930278)
Longitude:9500'16"W (-95.004527)
Datum:WGS 1984
Elevation:874 ft (266 m)
Runways:1
Longest:5001 × 75 ft (1524 × 23 m), paved

Time
Time Zone:UTC-6 (DST-5)
Local Time:

Weather
METAR:KTQH 251535Z AUTO 20004KT 10SM CLR 22/16 A3012 RMK AO2

Related Locations
Nearby:
Farthest:MGV: 10736 mi / 17277 km
Margaret River, WA, AU

Find:

   beyond  
but within

Other Information
Maps:
NOTAMs:
Links:
Sources:

  
flag of United States
flag of Oklahoma
  

Sectional Chart

Flight Planning
at skyvector.com

Satellite Image

Google Maps Satellite View

 

Copyright © 2004-2014 Karl L. Swartz. All rights reserved.
The Great Circle Mapper name and logo are trademarks of the Great Circle Mapper.
All other trademarks mentioned herein belong to their respective owners.
Please see credits for attibutions and further copyright information.

  Follow gcmap on Facebook Follow gcmap on Twitter

hCard Microformat

Geo Microformat